sensor_id;sensor_type;location;lat;lon;timestamp;temperature;humidity
14749;DHT22;7466;53.574;9.976;2023-05-29T00:01:17;11.90;99.90
14749;DHT22;7466;53.574;9.976;2023-05-29T00:03:46;11.90;99.90
14749;DHT22;7466;53.574;9.976;2023-05-29T00:06:13;11.90;99.90
14749;DHT22;7466;53.574;9.976;2023-05-29T00:08:40;12.00;99.90
14749;DHT22;7466;53.574;9.976;2023-05-29T00:11:07;11.90;99.90
14749;DHT22;7466;53.574;9.976;2023-05-29T00:13:34;11.80;99.90
14749;DHT22;7466;53.574;9.976;2023-05-29T00:16:02;11.80;99.90
14749;DHT22;7466;53.574;9.976;2023-05-29T00:18:30;11.80;99.90
14749;DHT22;7466;53.574;9.976;2023-05-29T00:20:57;11.70;99.90
14749;DHT22;7466;53.574;9.976;2023-05-29T00:23:23;11.60;99.90
14749;DHT22;7466;53.574;9.976;2023-05-29T00:25:50;11.60;99.90
14749;DHT22;7466;53.574;9.976;2023-05-29T00:28:17;11.60;99.90
14749;DHT22;7466;53.574;9.976;2023-05-29T00:30:44;11.50;99.90
14749;DHT22;7466;53.574;9.976;2023-05-29T00:33:12;11.50;99.90
14749;DHT22;7466;53.574;9.976;2023-05-29T00:35:39;11.30;99.90
14749;DHT22;7466;53.574;9.976;2023-05-29T00:38:06;11.30;99.90
14749;DHT22;7466;53.574;9.976;2023-05-29T00:40:33;11.20;99.90
14749;DHT22;7466;53.574;9.976;2023-05-29T00:42:59;11.10;99.90
14749;DHT22;7466;53.574;9.976;2023-05-29T00:45:26;11.10;99.90
14749;DHT22;7466;53.574;9.976;2023-05-29T00:47:53;11.10;99.90
14749;DHT22;7466;53.574;9.976;2023-05-29T00:50:22;11.00;99.90
14749;DHT22;7466;53.574;9.976;2023-05-29T00:52:50;10.80;99.90
14749;DHT22;7466;53.574;9.976;2023-05-29T00:55:17;10.70;99.90
14749;DHT22;7466;53.574;9.976;2023-05-29T00:57:44;10.60;99.90
14749;DHT22;7466;53.574;9.976;2023-05-29T01:00:13;10.50;99.90
14749;DHT22;7466;53.574;9.976;2023-05-29T01:02:40;10.60;99.90
14749;DHT22;7466;53.574;9.976;2023-05-29T01:05:10;10.50;99.90
14749;DHT22;7466;53.574;9.976;2023-05-29T01:07:38;10.50;99.90
14749;DHT22;7466;53.574;9.976;2023-05-29T01:10:06;10.40;99.90
14749;DHT22;7466;53.574;9.976;2023-05-29T01:12:38;10.30;99.90
14749;DHT22;7466;53.574;9.976;2023-05-29T01:15:17;10.30;99.90
14749;DHT22;7466;53.574;9.976;2023-05-29T01:17:57;10.30;99.90
14749;DHT22;7466;53.574;9.976;2023-05-29T01:20:33;10.20;99.90
14749;DHT22;7466;53.574;9.976;2023-05-29T01:23:15;10.10;99.90
14749;DHT22;7466;53.574;9.976;2023-05-29T01:26:03;10.00;99.90
14749;DHT22;7466;53.574;9.976;2023-05-29T01:34:43;9.80;99.90
14749;DHT22;7466;53.574;9.976;2023-05-29T01:37:10;9.70;99.90
14749;DHT22;7466;53.574;9.976;2023-05-29T01:39:38;9.70;99.90
14749;DHT22;7466;53.574;9.976;2023-05-29T01:42:06;9.70;99.90
14749;DHT22;7466;53.574;9.976;2023-05-29T01:44:33;9.70;99.90
14749;DHT22;7466;53.574;9.976;2023-05-29T01:47:00;9.70;99.90
14749;DHT22;7466;53.574;9.976;2023-05-29T01:49:28;9.50;99.90
14749;DHT22;7466;53.574;9.976;2023-05-29T01:52:04;9.50;99.90
14749;DHT22;7466;53.574;9.976;2023-05-29T01:54:31;9.50;99.90
14749;DHT22;7466;53.574;9.976;2023-05-29T01:56:58;9.50;99.90
14749;DHT22;7466;53.574;9.976;2023-05-29T01:59:26;9.40;99.90
14749;DHT22;7466;53.574;9.976;2023-05-29T02:01:54;9.40;99.90
14749;DHT22;7466;53.574;9.976;2023-05-29T02:04:21;9.40;99.90
14749;DHT22;7466;53.574;9.976;2023-05-29T02:06:47;9.40;99.90
14749;DHT22;7466;53.574;9.976;2023-05-29T02:11:43;9.20;99.90
14749;DHT22;7466;53.574;9.976;2023-05-29T02:14:11;9.20;99.90
14749;DHT22;7466;53.574;9.976;2023-05-29T02:16:38;9.20;99.90
14749;DHT22;7466;53.574;9.976;2023-05-29T02:19:06;9.20;99.90
14749;DHT22;7466;53.574;9.976;2023-05-29T02:21:33;9.20;99.90
14749;DHT22;7466;53.574;9.976;2023-05-29T02:24:01;9.20;99.90
14749;DHT22;7466;53.574;9.976;2023-05-29T02:26:29;9.10;99.90
14749;DHT22;7466;53.574;9.976;2023-05-29T02:28:57;9.20;99.90
14749;DHT22;7466;53.574;9.976;2023-05-29T02:31:23;9.10;99.90
14749;DHT22;7466;53.574;9.976;2023-05-29T02:33:50;9.00;99.90
14749;DHT22;7466;53.574;9.976;2023-05-29T02:36:17;8.80;99.90
14749;DHT22;7466;53.574;9.976;2023-05-29T02:38:44;8.80;99.90
14749;DHT22;7466;53.574;9.976;2023-05-29T02:41:10;8.80;99.90
14749;DHT22;7466;53.574;9.976;2023-05-29T02:43:38;8.80;99.90
14749;DHT22;7466;53.574;9.976;2023-05-29T02:46:05;8.70;99.90
14749;DHT22;7466;53.574;9.976;2023-05-29T02:48:32;8.70;99.90
14749;DHT22;7466;53.574;9.976;2023-05-29T02:50:59;8.70;99.90
14749;DHT22;7466;53.574;9.976;2023-05-29T02:53:25;8.70;99.90
14749;DHT22;7466;53.574;9.976;2023-05-29T02:55:52;8.60;99.90
14749;DHT22;7466;53.574;9.976;2023-05-29T02:58:20;8.60;99.90
14749;DHT22;7466;53.574;9.976;2023-05-29T03:00:48;8.60;99.90
14749;DHT22;7466;53.574;9.976;2023-05-29T03:03:15;8.50;99.90
14749;DHT22;7466;53.574;9.976;2023-05-29T03:05:42;8.40;99.90
14749;DHT22;7466;53.574;9.976;2023-05-29T03:08:09;8.50;99.90
14749;DHT22;7466;53.574;9.976;2023-05-29T03:10:36;8.40;99.90
14749;DHT22;7466;53.574;9.976;2023-05-29T03:13:03;8.50;99.90
14749;DHT22;7466;53.574;9.976;2023-05-29T03:15:30;8.50;99.90
14749;DHT22;7466;53.574;9.976;2023-05-29T03:17:58;8.40;99.90
14749;DHT22;7466;53.574;9.976;2023-05-29T03:20:25;8.50;99.90
14749;DHT22;7466;53.574;9.976;2023-05-29T03:22:53;8.40;99.90
14749;DHT22;7466;53.574;9.976;2023-05-29T03:25:20;8.40;99.90
14749;DHT22;7466;53.574;9.976;2023-05-29T03:27:48;8.50;99.90
14749;DHT22;7466;53.574;9.976;2023-05-29T03:30:15;8.50;99.90
14749;DHT22;7466;53.574;9.976;2023-05-29T03:32:41;8.60;99.90
14749;DHT22;7466;53.574;9.976;2023-05-29T03:35:09;8.60;99.90
14749;DHT22;7466;53.574;9.976;2023-05-29T03:37:36;8.60;99.90
14749;DHT22;7466;53.574;9.976;2023-05-29T03:40:04;8.60;99.90
14749;DHT22;7466;53.574;9.976;2023-05-29T03:42:31;8.50;99.90
14749;DHT22;7466;53.574;9.976;2023-05-29T03:45:00;8.50;99.90
14749;DHT22;7466;53.574;9.976;2023-05-29T03:47:27;8.60;99.90
14749;DHT22;7466;53.574;9.976;2023-05-29T03:49:53;8.60;99.90
14749;DHT22;7466;53.574;9.976;2023-05-29T03:52:22;8.60;99.90
14749;DHT22;7466;53.574;9.976;2023-05-29T03:54:48;8.60;99.90
14749;DHT22;7466;53.574;9.976;2023-05-29T03:57:17;8.50;99.90
14749;DHT22;7466;53.574;9.976;2023-05-29T03:59:44;8.50;99.90
14749;DHT22;7466;53.574;9.976;2023-05-29T04:02:10;8.50;99.90
14749;DHT22;7466;53.574;9.976;2023-05-29T04:04:38;8.60;99.90
14749;DHT22;7466;53.574;9.976;2023-05-29T04:07:06;8.60;99.90
14749;DHT22;7466;53.574;9.976;2023-05-29T04:09:40;8.60;99.90
14749;DHT22;7466;53.574;9.976;2023-05-29T04:12:07;8.60;99.90
14749;DHT22;7466;53.574;9.976;2023-05-29T04:14:34;8.60;99.90
14749;DHT22;7466;53.574;9.976;2023-05-29T04:17:01;8.60;99.90
14749;DHT22;7466;53.574;9.976;2023-05-29T04:19:28;8.50;99.90
14749;DHT22;7466;53.574;9.976;2023-05-29T04:21:55;8.40;99.90
14749;DHT22;7466;53.574;9.976;2023-05-29T04:24:22;8.40;99.90
14749;DHT22;7466;53.574;9.976;2023-05-29T04:26:51;8.50;99.90
14749;DHT22;7466;53.574;9.976;2023-05-29T04:29:18;8.60;99.90
14749;DHT22;7466;53.574;9.976;2023-05-29T04:31:50;8.70;99.90
14749;DHT22;7466;53.574;9.976;2023-05-29T04:34:17;8.70;99.90
14749;DHT22;7466;53.574;9.976;2023-05-29T04:36:45;8.80;99.90
14749;DHT22;7466;53.574;9.976;2023-05-29T04:39:12;8.80;99.90
14749;DHT22;7466;53.574;9.976;2023-05-29T04:41:39;8.90;99.90
14749;DHT22;7466;53.574;9.976;2023-05-29T04:44:08;9.00;99.90
14749;DHT22;7466;53.574;9.976;2023-05-29T04:46:36;8.80;99.90
14749;DHT22;7466;53.574;9.976;2023-05-29T04:49:03;8.90;99.90
14749;DHT22;7466;53.574;9.976;2023-05-29T04:51:30;9.00;99.90
14749;DHT22;7466;53.574;9.976;2023-05-29T04:53:57;9.00;99.90
14749;DHT22;7466;53.574;9.976;2023-05-29T04:56:24;9.10;99.90
14749;DHT22;7466;53.574;9.976;2023-05-29T04:58:52;9.30;99.90
14749;DHT22;7466;53.574;9.976;2023-05-29T05:01:20;9.40;99.90
14749;DHT22;7466;53.574;9.976;2023-05-29T05:03:49;9.50;99.90
14749;DHT22;7466;53.574;9.976;2023-05-29T05:06:15;9.50;99.90
14749;DHT22;7466;53.574;9.976;2023-05-29T05:08:42;9.50;99.90
14749;DHT22;7466;53.574;9.976;2023-05-29T05:11:09;9.70;99.90
14749;DHT22;7466;53.574;9.976;2023-05-29T05:13:36;9.50;99.90
14749;DHT22;7466;53.574;9.976;2023-05-29T05:16:03;9.60;99.90
14749;DHT22;7466;53.574;9.976;2023-05-29T05:18:31;9.70;99.90
14749;DHT22;7466;53.574;9.976;2023-05-29T05:20:58;9.80;99.90
14749;DHT22;7466;53.574;9.976;2023-05-29T05:23:25;9.80;99.90
14749;DHT22;7466;53.574;9.976;2023-05-29T05:25:52;9.80;99.90
14749;DHT22;7466;53.574;9.976;2023-05-29T05:28:19;9.80;99.90
14749;DHT22;7466;53.574;9.976;2023-05-29T05:30:46;9.80;99.90
14749;DHT22;7466;53.574;9.976;2023-05-29T05:33:12;10.00;99.90
14749;DHT22;7466;53.574;9.976;2023-05-29T05:35:41;9.80;99.90
14749;DHT22;7466;53.574;9.976;2023-05-29T05:38:08;9.80;99.90
14749;DHT22;7466;53.574;9.976;2023-05-29T05:40:36;9.90;99.90
14749;DHT22;7466;53.574;9.976;2023-05-29T05:43:03;10.10;99.90
14749;DHT22;7466;53.574;9.976;2023-05-29T05:45:30;10.00;99.90
14749;DHT22;7466;53.574;9.976;2023-05-29T05:47:56;9.90;99.90
14749;DHT22;7466;53.574;9.976;2023-05-29T05:50:23;10.00;99.90
14749;DHT22;7466;53.574;9.976;2023-05-29T05:52:52;10.00;99.90
14749;DHT22;7466;53.574;9.976;2023-05-29T05:55:19;10.00;99.90
14749;DHT22;7466;53.574;9.976;2023-05-29T05:57:46;10.10;99.90
14749;DHT22;7466;53.574;9.976;2023-05-29T06:00:13;10.40;99.90
14749;DHT22;7466;53.574;9.976;2023-05-29T06:02:40;10.40;99.90
14749;DHT22;7466;53.574;9.976;2023-05-29T06:05:08;10.30;99.90
14749;DHT22;7466;53.574;9.976;2023-05-29T06:07:35;10.40;99.90
14749;DHT22;7466;53.574;9.976;2023-05-29T06:10:12;10.50;99.90
14749;DHT22;7466;53.574;9.976;2023-05-29T06:12:40;10.70;99.90
14749;DHT22;7466;53.574;9.976;2023-05-29T06:15:07;10.50;99.90
14749;DHT22;7466;53.574;9.976;2023-05-29T06:17:34;10.80;99.90
14749;DHT22;7466;53.574;9.976;2023-05-29T06:20:01;10.70;99.90
14749;DHT22;7466;53.574;9.976;2023-05-29T06:22:29;10.80;99.90
14749;DHT22;7466;53.574;9.976;2023-05-29T06:24:56;11.00;99.90
14749;DHT22;7466;53.574;9.976;2023-05-29T06:27:24;11.00;99.90
14749;DHT22;7466;53.574;9.976;2023-05-29T06:29:51;11.10;99.90
14749;DHT22;7466;53.574;9.976;2023-05-29T06:32:18;11.40;99.90
14749;DHT22;7466;53.574;9.976;2023-05-29T06:34:45;11.50;99.90
14749;DHT22;7466;53.574;9.976;2023-05-29T06:37:12;11.50;99.90
14749;DHT22;7466;53.574;9.976;2023-05-29T06:39:39;11.60;99.90
14749;DHT22;7466;53.574;9.976;2023-05-29T06:42:08;11.50;99.90
14749;DHT22;7466;53.574;9.976;2023-05-29T06:44:37;11.80;99.90
14749;DHT22;7466;53.574;9.976;2023-05-29T06:47:05;12.20;99.90
14749;DHT22;7466;53.574;9.976;2023-05-29T06:49:32;11.80;99.90
14749;DHT22;7466;53.574;9.976;2023-05-29T06:51:59;12.00;99.90
14749;DHT22;7466;53.574;9.976;2023-05-29T06:54:26;12.00;99.90
14749;DHT22;7466;53.574;9.976;2023-05-29T06:56:53;12.00;99.90
14749;DHT22;7466;53.574;9.976;2023-05-29T06:59:20;12.10;99.90
14749;DHT22;7466;53.574;9.976;2023-05-29T07:01:51;12.30;99.90
14749;DHT22;7466;53.574;9.976;2023-05-29T07:04:18;12.20;99.90
14749;DHT22;7466;53.574;9.976;2023-05-29T07:06:45;12.30;99.90
14749;DHT22;7466;53.574;9.976;2023-05-29T07:09:12;11.90;99.90
14749;DHT22;7466;53.574;9.976;2023-05-29T07:11:39;11.90;99.90
14749;DHT22;7466;53.574;9.976;2023-05-29T07:14:06;11.80;99.90
14749;DHT22;7466;53.574;9.976;2023-05-29T07:16:32;11.80;99.90
14749;DHT22;7466;53.574;9.976;2023-05-29T07:19:01;12.00;99.90
14749;DHT22;7466;53.574;9.976;2023-05-29T07:21:27;12.00;99.90
14749;DHT22;7466;53.574;9.976;2023-05-29T07:23:54;12.30;99.90
14749;DHT22;7466;53.574;9.976;2023-05-29T07:26:21;12.40;99.90
14749;DHT22;7466;53.574;9.976;2023-05-29T07:28:48;12.70;99.90
14749;DHT22;7466;53.574;9.976;2023-05-29T07:31:15;12.80;99.90
14749;DHT22;7466;53.574;9.976;2023-05-29T07:33:42;12.80;99.90
14749;DHT22;7466;53.574;9.976;2023-05-29T07:36:11;12.60;99.90
14749;DHT22;7466;53.574;9.976;2023-05-29T07:38:38;12.70;99.90
14749;DHT22;7466;53.574;9.976;2023-05-29T07:41:05;12.80;99.90
14749;DHT22;7466;53.574;9.976;2023-05-29T07:43:31;12.90;99.90
14749;DHT22;7466;53.574;9.976;2023-05-29T07:45:58;13.20;99.90
14749;DHT22;7466;53.574;9.976;2023-05-29T07:48:25;13.40;99.90
14749;DHT22;7466;53.574;9.976;2023-05-29T07:50:52;13.60;99.90
14749;DHT22;7466;53.574;9.976;2023-05-29T07:53:21;13.70;99.90
14749;DHT22;7466;53.574;9.976;2023-05-29T07:55:47;13.40;99.90
14749;DHT22;7466;53.574;9.976;2023-05-29T07:58:14;13.20;99.90
14749;DHT22;7466;53.574;9.976;2023-05-29T08:00:43;13.30;99.90
14749;DHT22;7466;53.574;9.976;2023-05-29T08:03:10;13.40;99.90
14749;DHT22;7466;53.574;9.976;2023-05-29T08:05:37;13.60;99.90
14749;DHT22;7466;53.574;9.976;2023-05-29T08:08:04;13.50;99.90
14749;DHT22;7466;53.574;9.976;2023-05-29T08:10:32;13.60;99.90
14749;DHT22;7466;53.574;9.976;2023-05-29T08:12:59;13.10;99.90
14749;DHT22;7466;53.574;9.976;2023-05-29T08:15:26;13.20;99.90
14749;DHT22;7466;53.574;9.976;2023-05-29T08:17:52;13.30;99.90
14749;DHT22;7466;53.574;9.976;2023-05-29T08:20:19;13.60;99.90
14749;DHT22;7466;53.574;9.976;2023-05-29T08:22:46;14.10;99.90
14749;DHT22;7466;53.574;9.976;2023-05-29T08:25:13;14.30;99.90
14749;DHT22;7466;53.574;9.976;2023-05-29T08:27:41;14.30;99.90
14749;DHT22;7466;53.574;9.976;2023-05-29T08:30:09;14.40;99.90
14749;DHT22;7466;53.574;9.976;2023-05-29T08:32:35;14.40;99.90
14749;DHT22;7466;53.574;9.976;2023-05-29T08:35:03;14.60;99.90
14749;DHT22;7466;53.574;9.976;2023-05-29T08:37:30;14.00;99.90
14749;DHT22;7466;53.574;9.976;2023-05-29T08:39:57;14.30;99.90
14749;DHT22;7466;53.574;9.976;2023-05-29T08:42:29;14.50;99.90
14749;DHT22;7466;53.574;9.976;2023-05-29T08:45:02;14.70;99.90
14749;DHT22;7466;53.574;9.976;2023-05-29T08:47:33;14.60;99.90
14749;DHT22;7466;53.574;9.976;2023-05-29T08:50:00;14.40;99.90
14749;DHT22;7466;53.574;9.976;2023-05-29T08:52:30;14.60;99.90
14749;DHT22;7466;53.574;9.976;2023-05-29T08:55:01;14.70;99.90
14749;DHT22;7466;53.574;9.976;2023-05-29T08:57:29;14.70;99.90
14749;DHT22;7466;53.574;9.976;2023-05-29T08:59:57;15.00;99.90
14749;DHT22;7466;53.574;9.976;2023-05-29T09:02:28;14.70;99.90
14749;DHT22;7466;53.574;9.976;2023-05-29T09:04:55;15.10;99.90
14749;DHT22;7466;53.574;9.976;2023-05-29T09:07:23;15.30;99.90
14749;DHT22;7466;53.574;9.976;2023-05-29T09:10:05;15.70;99.90
14749;DHT22;7466;53.574;9.976;2023-05-29T09:12:33;15.90;99.90
14749;DHT22;7466;53.574;9.976;2023-05-29T09:15:00;15.60;99.90
14749;DHT22;7466;53.574;9.976;2023-05-29T09:17:32;15.70;99.90
14749;DHT22;7466;53.574;9.976;2023-05-29T09:19:59;15.70;99.90
14749;DHT22;7466;53.574;9.976;2023-05-29T09:22:30;15.90;99.90
14749;DHT22;7466;53.574;9.976;2023-05-29T09:24:58;15.90;99.90
14749;DHT22;7466;53.574;9.976;2023-05-29T09:27:24;16.00;99.90
14749;DHT22;7466;53.574;9.976;2023-05-29T09:33:03;16.00;99.90
14749;DHT22;7466;53.574;9.976;2023-05-29T09:35:35;16.30;99.90
14749;DHT22;7466;53.574;9.976;2023-05-29T09:38:02;16.20;99.90
14749;DHT22;7466;53.574;9.976;2023-05-29T09:40:32;16.80;99.90
14749;DHT22;7466;53.574;9.976;2023-05-29T09:43:04;17.10;99.90
14749;DHT22;7466;53.574;9.976;2023-05-29T09:45:36;17.40;99.90
14749;DHT22;7466;53.574;9.976;2023-05-29T09:48:05;17.60;99.90
14749;DHT22;7466;53.574;9.976;2023-05-29T09:50:33;17.30;99.90
14749;DHT22;7466;53.574;9.976;2023-05-29T09:53:01;17.30;99.90
14749;DHT22;7466;53.574;9.976;2023-05-29T09:55:30;17.10;99.90
14749;DHT22;7466;53.574;9.976;2023-05-29T09:57:59;16.70;99.90
14749;DHT22;7466;53.574;9.976;2023-05-29T10:00:28;17.10;99.90
14749;DHT22;7466;53.574;9.976;2023-05-29T10:02:56;17.50;99.90
14749;DHT22;7466;53.574;9.976;2023-05-29T10:05:26;17.60;99.90
14749;DHT22;7466;53.574;9.976;2023-05-29T10:07:59;17.80;99.90
14749;DHT22;7466;53.574;9.976;2023-05-29T10:10:28;18.20;99.40
14749;DHT22;7466;53.574;9.976;2023-05-29T10:12:56;18.30;97.00
14749;DHT22;7466;53.574;9.976;2023-05-29T10:15:24;18.60;96.50
14749;DHT22;7466;53.574;9.976;2023-05-29T10:17:59;18.50;95.90
14749;DHT22;7466;53.574;9.976;2023-05-29T10:20:28;17.90;99.10
14749;DHT22;7466;53.574;9.976;2023-05-29T10:22:56;17.50;99.30
14749;DHT22;7466;53.574;9.976;2023-05-29T10:25:27;17.70;99.90
14749;DHT22;7466;53.574;9.976;2023-05-29T10:27:56;17.70;98.90
14749;DHT22;7466;53.574;9.976;2023-05-29T10:30:29;18.00;99.40
14749;DHT22;7466;53.574;9.976;2023-05-29T10:33:15;18.00;97.30
14749;DHT22;7466;53.574;9.976;2023-05-29T10:35:48;17.80;99.90
14749;DHT22;7466;53.574;9.976;2023-05-29T10:38:18;18.40;99.90
14749;DHT22;7466;53.574;9.976;2023-05-29T10:40:46;19.00;96.40
14749;DHT22;7466;53.574;9.976;2023-05-29T10:43:31;18.80;94.30
14749;DHT22;7466;53.574;9.976;2023-05-29T10:45:59;18.90;92.50
14749;DHT22;7466;53.574;9.976;2023-05-29T10:48:42;18.60;91.80
14749;DHT22;7466;53.574;9.976;2023-05-29T10:51:33;19.00;90.80
14749;DHT22;7466;53.574;9.976;2023-05-29T10:54:06;19.40;90.40
14749;DHT22;7466;53.574;9.976;2023-05-29T10:56:33;19.30;89.20
14749;DHT22;7466;53.574;9.976;2023-05-29T10:59:01;19.50;88.70
14749;DHT22;7466;53.574;9.976;2023-05-29T11:01:33;19.20;86.70
14749;DHT22;7466;53.574;9.976;2023-05-29T11:04:25;19.50;86.30
14749;DHT22;7466;53.574;9.976;2023-05-29T11:06:53;19.60;77.00
14749;DHT22;7466;53.574;9.976;2023-05-29T11:09:31;19.30;77.30
14749;DHT22;7466;53.574;9.976;2023-05-29T11:12:16;19.50;80.20
14749;DHT22;7466;53.574;9.976;2023-05-29T11:14:55;20.00;79.80
14749;DHT22;7466;53.574;9.976;2023-05-29T11:17:42;20.00;76.30
14749;DHT22;7466;53.574;9.976;2023-05-29T11:20:20;19.60;77.50
14749;DHT22;7466;53.574;9.976;2023-05-29T11:23:04;19.60;76.80
14749;DHT22;7466;53.574;9.976;2023-05-29T11:25:35;19.60;75.10
14749;DHT22;7466;53.574;9.976;2023-05-29T11:28:03;19.80;76.60
14749;DHT22;7466;53.574;9.976;2023-05-29T11:30:43;20.10;73.60
14749;DHT22;7466;53.574;9.976;2023-05-29T11:33:23;20.30;74.10
14749;DHT22;7466;53.574;9.976;2023-05-29T11:35:56;19.90;74.80
14749;DHT22;7466;53.574;9.976;2023-05-29T11:38:24;20.00;77.50
14749;DHT22;7466;53.574;9.976;2023-05-29T11:40:52;20.40;75.10
14749;DHT22;7466;53.574;9.976;2023-05-29T11:43:20;20.30;75.20
14749;DHT22;7466;53.574;9.976;2023-05-29T11:45:47;20.10;71.90
14749;DHT22;7466;53.574;9.976;2023-05-29T11:48:14;19.60;73.90
14749;DHT22;7466;53.574;9.976;2023-05-29T11:50:41;19.60;74.50
14749;DHT22;7466;53.574;9.976;2023-05-29T11:53:09;20.10;75.20
14749;DHT22;7466;53.574;9.976;2023-05-29T11:55:40;19.70;68.00
14749;DHT22;7466;53.574;9.976;2023-05-29T11:58:07;19.80;71.20
14749;DHT22;7466;53.574;9.976;2023-05-29T12:00:35;20.00;70.50
14749;DHT22;7466;53.574;9.976;2023-05-29T12:03:03;20.20;71.10
14749;DHT22;7466;53.574;9.976;2023-05-29T12:05:30;20.50;69.20
14749;DHT22;7466;53.574;9.976;2023-05-29T12:07:57;20.40;68.80
14749;DHT22;7466;53.574;9.976;2023-05-29T12:10:27;20.80;66.70
14749;DHT22;7466;53.574;9.976;2023-05-29T12:12:57;20.60;68.60
14749;DHT22;7466;53.574;9.976;2023-05-29T12:15:25;20.30;71.10
14749;DHT22;7466;53.574;9.976;2023-05-29T12:17:53;19.90;70.00
14749;DHT22;7466;53.574;9.976;2023-05-29T12:20:23;20.30;70.70
14749;DHT22;7466;53.574;9.976;2023-05-29T12:22:52;20.70;68.70
14749;DHT22;7466;53.574;9.976;2023-05-29T12:25:20;21.40;67.90
14749;DHT22;7466;53.574;9.976;2023-05-29T12:27:47;21.10;68.50
14749;DHT22;7466;53.574;9.976;2023-05-29T12:30:21;21.60;67.20
14749;DHT22;7466;53.574;9.976;2023-05-29T12:32:50;20.60;69.60
14749;DHT22;7466;53.574;9.976;2023-05-29T12:35:19;21.10;66.30
14749;DHT22;7466;53.574;9.976;2023-05-29T12:37:47;22.30;63.00
14749;DHT22;7466;53.574;9.976;2023-05-29T12:40:15;23.60;58.00
14749;DHT22;7466;53.574;9.976;2023-05-29T12:42:43;23.90;56.50
14749;DHT22;7466;53.574;9.976;2023-05-29T12:45:10;24.00;55.60
14749;DHT22;7466;53.574;9.976;2023-05-29T12:47:44;25.00;53.70
14749;DHT22;7466;53.574;9.976;2023-05-29T12:50:22;24.00;51.40
14749;DHT22;7466;53.574;9.976;2023-05-29T12:52:59;23.90;53.70
14749;DHT22;7466;53.574;9.976;2023-05-29T12:55:33;24.50;53.20
14749;DHT22;7466;53.574;9.976;2023-05-29T12:58:11;25.20;51.70
14749;DHT22;7466;53.574;9.976;2023-05-29T13:00:39;26.10;50.10
14749;DHT22;7466;53.574;9.976;2023-05-29T13:03:08;25.90;48.20
14749;DHT22;7466;53.574;9.976;2023-05-29T13:05:36;24.90;49.00
14749;DHT22;7466;53.574;9.976;2023-05-29T13:08:03;25.40;48.80
14749;DHT22;7466;53.574;9.976;2023-05-29T13:10:30;24.70;50.80
14749;DHT22;7466;53.574;9.976;2023-05-29T13:12:57;26.30;47.50
14749;DHT22;7466;53.574;9.976;2023-05-29T13:15:25;26.70;46.60
14749;DHT22;7466;53.574;9.976;2023-05-29T13:17:52;28.10;44.80
14749;DHT22;7466;53.574;9.976;2023-05-29T13:20:21;27.40;44.10
14749;DHT22;7466;53.574;9.976;2023-05-29T13:22:49;27.40;43.80
14749;DHT22;7466;53.574;9.976;2023-05-29T13:25:17;28.90;42.80
14749;DHT22;7466;53.574;9.976;2023-05-29T13:27:47;28.00;42.60
14749;DHT22;7466;53.574;9.976;2023-05-29T13:30:15;28.20;41.90
14749;DHT22;7466;53.574;9.976;2023-05-29T13:32:43;28.80;42.90
14749;DHT22;7466;53.574;9.976;2023-05-29T13:35:10;29.90;40.70
14749;DHT22;7466;53.574;9.976;2023-05-29T13:37:38;30.60;38.50
14749;DHT22;7466;53.574;9.976;2023-05-29T13:40:06;30.50;38.00
14749;DHT22;7466;53.574;9.976;2023-05-29T13:42:35;28.90;39.50
14749;DHT22;7466;53.574;9.976;2023-05-29T13:45:02;29.90;40.30
14749;DHT22;7466;53.574;9.976;2023-05-29T13:47:30;30.20;38.10
14749;DHT22;7466;53.574;9.976;2023-05-29T13:49:58;31.80;37.90
14749;DHT22;7466;53.574;9.976;2023-05-29T13:52:25;30.30;36.90
14749;DHT22;7466;53.574;9.976;2023-05-29T13:54:53;27.70;39.90
14749;DHT22;7466;53.574;9.976;2023-05-29T13:57:20;28.10;39.60
14749;DHT22;7466;53.574;9.976;2023-05-29T13:59:47;27.30;41.70
14749;DHT22;7466;53.574;9.976;2023-05-29T14:02:14;28.40;39.40
14749;DHT22;7466;53.574;9.976;2023-05-29T14:04:41;27.00;39.30
14749;DHT22;7466;53.574;9.976;2023-05-29T14:07:09;27.50;42.00
14749;DHT22;7466;53.574;9.976;2023-05-29T14:09:35;30.60;38.80
14749;DHT22;7466;53.574;9.976;2023-05-29T14:12:04;30.50;37.40
14749;DHT22;7466;53.574;9.976;2023-05-29T14:14:32;31.30;36.50
14749;DHT22;7466;53.574;9.976;2023-05-29T14:17:00;32.20;35.70
14749;DHT22;7466;53.574;9.976;2023-05-29T14:19:28;32.50;35.00
14749;DHT22;7466;53.574;9.976;2023-05-29T14:21:54;30.80;34.80
14749;DHT22;7466;53.574;9.976;2023-05-29T14:24:21;28.20;38.00
14749;DHT22;7466;53.574;9.976;2023-05-29T14:26:50;27.80;40.00
14749;DHT22;7466;53.574;9.976;2023-05-29T14:29:18;28.80;38.10
14749;DHT22;7466;53.574;9.976;2023-05-29T14:31:45;27.80;40.80
14749;DHT22;7466;53.574;9.976;2023-05-29T14:34:12;27.40;40.70
14749;DHT22;7466;53.574;9.976;2023-05-29T14:36:39;28.60;41.10
14749;DHT22;7466;53.574;9.976;2023-05-29T14:39:10;30.10;38.40
14749;DHT22;7466;53.574;9.976;2023-05-29T14:41:37;30.00;36.10
14749;DHT22;7466;53.574;9.976;2023-05-29T14:44:04;30.50;37.40
14749;DHT22;7466;53.574;9.976;2023-05-29T14:46:32;32.30;36.10
14749;DHT22;7466;53.574;9.976;2023-05-29T14:49:01;33.80;34.60
14749;DHT22;7466;53.574;9.976;2023-05-29T14:51:28;34.40;33.90
14749;DHT22;7466;53.574;9.976;2023-05-29T14:53:55;34.20;34.80
14749;DHT22;7466;53.574;9.976;2023-05-29T14:56:21;32.40;37.60
14749;DHT22;7466;53.574;9.976;2023-05-29T14:58:48;32.40;37.00
14749;DHT22;7466;53.574;9.976;2023-05-29T15:01:15;33.00;38.50
14749;DHT22;7466;53.574;9.976;2023-05-29T15:03:44;33.00;38.00
14749;DHT22;7466;53.574;9.976;2023-05-29T15:06:11;30.10;41.30
14749;DHT22;7466;53.574;9.976;2023-05-29T15:08:38;29.50;42.60
14749;DHT22;7466;53.574;9.976;2023-05-29T15:11:05;31.70;40.40
14749;DHT22;7466;53.574;9.976;2023-05-29T15:13:33;30.20;39.90
14749;DHT22;7466;53.574;9.976;2023-05-29T15:16:00;32.00;39.10
14749;DHT22;7466;53.574;9.976;2023-05-29T15:18:28;30.40;38.10
14749;DHT22;7466;53.574;9.976;2023-05-29T15:20:56;28.60;41.30
14749;DHT22;7466;53.574;9.976;2023-05-29T15:23:24;29.50;42.30
14749;DHT22;7466;53.574;9.976;2023-05-29T15:25:51;31.30;40.60
14749;DHT22;7466;53.574;9.976;2023-05-29T15:28:18;31.40;39.40
14749;DHT22;7466;53.574;9.976;2023-05-29T15:30:45;29.30;41.10
14749;DHT22;7466;53.574;9.976;2023-05-29T15:33:12;27.90;44.00
14749;DHT22;7466;53.574;9.976;2023-05-29T15:35:40;27.40;45.20
14749;DHT22;7466;53.574;9.976;2023-05-29T15:38:11;28.20;44.70
14749;DHT22;7466;53.574;9.976;2023-05-29T15:40:39;29.50;42.50
14749;DHT22;7466;53.574;9.976;2023-05-29T15:43:06;30.10;41.50
14749;DHT22;7466;53.574;9.976;2023-05-29T15:45:33;32.00;40.50
14749;DHT22;7466;53.574;9.976;2023-05-29T15:48:05;31.60;40.10
14749;DHT22;7466;53.574;9.976;2023-05-29T15:50:41;32.20;39.70
14749;DHT22;7466;53.574;9.976;2023-05-29T15:53:22;31.70;38.80
14749;DHT22;7466;53.574;9.976;2023-05-29T15:55:49;32.30;39.00
14749;DHT22;7466;53.574;9.976;2023-05-29T15:58:16;30.30;40.70
14749;DHT22;7466;53.574;9.976;2023-05-29T16:00:43;30.10;41.40
14749;DHT22;7466;53.574;9.976;2023-05-29T16:03:10;28.60;42.80
14749;DHT22;7466;53.574;9.976;2023-05-29T16:05:37;26.80;44.60
14749;DHT22;7466;53.574;9.976;2023-05-29T16:08:05;25.70;48.30
14749;DHT22;7466;53.574;9.976;2023-05-29T16:10:34;25.20;48.80